Time;durP1;ratioP1;P1;durP2;ratioP2;P2;SDS_P1;SDS_P2;PMS_P1;PMS_P2;Temp;Humidity;BMP_temperature;BMP_pressure;BME280_temperature;BME280_humidity;BME280_pressure;Samples;Min_cycle;Max_cycle;Signal;HPM_P1;HPM_P2
2024/03/16 00:00:47;;;;;;;3.17;1.50;;;12.80;99.90;;;;;;4961427;28;20494;-72
2024/03/16 00:03:14;;;;;;;3.10;1.40;;;12.70;99.90;;;;;;4940284;28;20517;-72
2024/03/16 00:05:42;;;;;;;2.50;1.40;;;12.70;99.90;;;;;;4931265;28;20462;-73
2024/03/16 00:08:08;;;;;;;1.30;1.07;;;12.60;99.90;;;;;;4946960;28;20498;-72
2024/03/16 00:10:35;;;;;;;1.67;1.57;;;12.60;99.90;;;;;;4943393;28;20493;-72
2024/03/16 00:13:02;;;;;;;2.10;1.40;;;12.50;99.90;;;;;;4967029;28;20489;-72
2024/03/16 00:15:29;;;;;;;4.43;2.10;;;12.50;99.90;;;;;;4950704;28;26282;-72
2024/03/16 00:17:56;;;;;;;1.77;1.50;;;12.50;99.90;;;;;;4931935;28;20557;-72
2024/03/16 00:20:25;;;;;;;2.50;1.77;;;12.60;99.90;;;;;;4940714;28;20486;-72
2024/03/16 00:22:52;;;;;;;3.73;3.40;;;12.60;99.90;;;;;;4957790;28;20466;-72
2024/03/16 00:25:19;;;;;;;1.50;1.17;;;12.60;99.90;;;;;;4933833;28;20459;-72
2024/03/16 00:27:46;;;;;;;2.20;1.50;;;12.50;99.90;;;;;;4955002;28;20573;-72
2024/03/16 00:30:13;;;;;;;3.00;1.50;;;12.50;99.90;;;;;;4941137;28;20483;-73
2024/03/16 00:32:40;;;;;;;1.87;1.50;;;12.50;99.90;;;;;;5003382;23;20505;-71
2024/03/16 00:35:08;;;;;;;1.33;1.07;;;12.50;99.90;;;;;;4953508;28;20466;-71
2024/03/16 00:37:34;;;;;;;4.03;1.60;;;12.40;99.90;;;;;;4952951;28;20466;-71
2024/03/16 00:40:01;;;;;;;1.43;1.13;;;12.30;99.90;;;;;;4952779;28;20481;-72
2024/03/16 00:42:28;;;;;;;4.63;1.27;;;12.40;99.90;;;;;;4960657;28;20466;-72
2024/03/16 00:44:55;;;;;;;2.23;1.00;;;12.40;99.90;;;;;;4947253;28;20462;-72
2024/03/16 00:47:22;;;;;;;1.03;0.90;;;12.40;99.90;;;;;;4953478;28;20555;-71
2024/03/16 00:49:49;;;;;;;1.60;1.10;;;12.30;99.90;;;;;;4959771;28;20513;-71
2024/03/16 00:52:15;;;;;;;1.70;1.20;;;12.20;99.90;;;;;;4957752;28;20557;-71
2024/03/16 00:54:42;;;;;;;2.27;1.30;;;12.30;99.90;;;;;;4972154;28;20457;-72
2024/03/16 00:57:09;;;;;;;1.50;1.10;;;12.20;99.90;;;;;;4971603;28;20457;-70
2024/03/16 00:59:36;;;;;;;10.13;2.10;;;12.20;99.90;;;;;;4970206;28;20832;-71
2024/03/16 01:02:04;;;;;;;1.97;1.23;;;12.20;99.90;;;;;;4980862;28;20482;-71
2024/03/16 01:04:32;;;;;;;1.43;1.00;;;12.00;99.90;;;;;;4958741;28;20815;-71
2024/03/16 01:06:59;;;;;;;3.37;1.53;;;11.90;99.90;;;;;;4957544;28;20491;-71
2024/03/16 01:09:26;;;;;;;2.57;1.40;;;11.90;99.90;;;;;;4957643;28;20497;-71
2024/03/16 01:11:53;;;;;;;2.47;1.00;;;11.90;99.90;;;;;;4965966;28;20922;-71
2024/03/16 01:14:20;;;;;;;1.37;1.03;;;11.80;99.90;;;;;;4944281;28;20834;-71
2024/03/16 01:16:46;;;;;;;2.50;1.07;;;11.80;99.90;;;;;;4959336;28;20466;-71
2024/03/16 01:19:13;;;;;;;3.60;1.50;;;11.70;99.90;;;;;;4935727;28;20478;-71
2024/03/16 01:21:43;;;;;;;3.33;2.03;;;11.70;99.90;;;;;;4935667;28;20462;-72
2024/03/16 01:24:10;;;;;;;2.40;1.17;;;11.70;99.90;;;;;;4942041;28;20467;-72
2024/03/16 01:26:37;;;;;;;1.30;0.93;;;11.80;99.90;;;;;;4946992;28;20476;-71
2024/03/16 01:29:05;;;;;;;1.90;1.50;;;11.80;99.90;;;;;;4942933;28;20498;-72
2024/03/16 01:31:32;;;;;;;1.43;1.10;;;11.90;99.90;;;;;;4942964;28;20489;-72
2024/03/16 01:33:58;;;;;;;1.40;1.00;;;11.90;99.90;;;;;;4941254;28;20551;-72
2024/03/16 01:36:25;;;;;;;3.30;3.00;;;11.90;99.90;;;;;;4941839;28;20469;-70
2024/03/16 01:38:52;;;;;;;1.30;0.83;;;11.90;99.90;;;;;;4943949;28;20974;-70
2024/03/16 01:41:22;;;;;;;1.40;0.80;;;11.90;99.90;;;;;;4927091;28;20529;-71
2024/03/16 01:43:49;;;;;;;8.60;2.03;;;11.90;99.90;;;;;;4937693;28;20445;-71
2024/03/16 01:46:18;;;;;;;2.40;1.20;;;11.90;99.90;;;;;;4939979;28;20459;-71
2024/03/16 01:48:51;;;;;;;3.23;1.33;;;11.90;99.90;;;;;;4940602;28;20483;-71
2024/03/16 01:51:19;;;;;;;1.20;1.10;;;11.90;99.90;;;;;;4941785;28;21034;-71
2024/03/16 01:53:46;;;;;;;3.17;1.63;;;11.90;99.90;;;;;;4952431;28;21312;-71
2024/03/16 01:56:13;;;;;;;3.00;1.70;;;12.00;99.90;;;;;;4938259;28;20584;-71
2024/03/16 01:58:43;;;;;;;7.87;2.13;;;12.00;99.90;;;;;;4940527;28;20504;-72
2024/03/16 02:01:13;;;;;;;2.03;1.00;;;12.00;99.90;;;;;;4956556;28;20473;-71
2024/03/16 02:03:40;;;;;;;1.67;1.33;;;12.10;99.90;;;;;;4952879;28;20953;-71
2024/03/16 02:06:07;;;;;;;1.30;1.00;;;12.10;99.90;;;;;;4945805;28;20558;-70
2024/03/16 02:08:34;;;;;;;2.80;1.63;;;12.10;99.90;;;;;;4958918;28;20482;-70
2024/03/16 02:11:01;;;;;;;2.30;2.10;;;12.10;99.90;;;;;;4955927;28;20493;-71
2024/03/16 02:13:28;;;;;;;2.90;1.93;;;12.00;99.90;;;;;;4937221;28;20466;-71
2024/03/16 02:15:55;;;;;;;10.27;2.10;;;12.00;99.90;;;;;;4958147;28;20458;-70
2024/03/16 02:18:21;;;;;;;3.73;1.67;;;11.90;99.90;;;;;;4942532;28;20509;-71
2024/03/16 02:20:47;;;;;;;3.50;1.50;;;11.90;99.90;;;;;;4953989;28;20569;-71
2024/03/16 02:23:15;;;;;;;4.70;2.20;;;11.90;99.90;;;;;;4943683;28;20466;-71
2024/03/16 02:25:42;;;;;;;10.20;1.30;;;11.90;99.90;;;;;;4937669;28;20482;-70
2024/03/16 02:28:09;;;;;;;2.70;1.10;;;11.90;99.90;;;;;;4935226;28;20491;-71
2024/03/16 02:30:37;;;;;;;2.40;1.10;;;11.90;99.90;;;;;;4943336;28;20547;-71
2024/03/16 02:33:07;;;;;;;1.87;1.00;;;11.90;99.90;;;;;;4943292;28;20538;-70
2024/03/16 02:35:33;;;;;;;2.03;1.10;;;11.80;99.90;;;;;;4944887;28;20473;-71
2024/03/16 02:38:00;;;;;;;2.60;1.40;;;11.80;99.90;;;;;;4935374;28;20469;-71
2024/03/16 02:40:28;;;;;;;3.97;2.10;;;11.80;99.90;;;;;;4943261;28;20497;-71
2024/03/16 02:42:55;;;;;;;3.13;1.20;;;11.90;99.90;;;;;;4954916;28;20462;-71
2024/03/16 02:45:21;;;;;;;4.80;1.57;;;11.90;99.90;;;;;;4960506;28;20844;-71
2024/03/16 02:47:48;;;;;;;5.63;1.50;;;12.00;99.90;;;;;;4950638;28;20462;-71
2024/03/16 02:50:15;;;;;;;2.20;1.30;;;12.00;99.90;;;;;;4958350;28;20482;-72
2024/03/16 02:52:42;;;;;;;1.67;1.17;;;11.90;99.90;;;;;;4957472;28;20461;-71
2024/03/16 02:55:13;;;;;;;1.10;1.00;;;11.90;99.90;;;;;;4991044;28;20462;-71
2024/03/16 02:57:40;;;;;;;6.83;2.13;;;11.80;99.90;;;;;;4955780;28;20458;-70
2024/03/16 03:00:10;;;;;;;1.77;1.20;;;11.80;99.90;;;;;;4959690;28;20949;-71
2024/03/16 03:02:37;;;;;;;2.80;1.23;;;11.80;99.90;;;;;;4963229;28;20473;-71
2024/03/16 03:05:10;;;;;;;2.50;1.40;;;11.70;99.90;;;;;;4954691;28;20646;-71
2024/03/16 03:07:38;;;;;;;2.60;1.63;;;11.70;99.90;;;;;;4945450;28;21041;-71
2024/03/16 03:10:06;;;;;;;4.17;2.00;;;11.80;99.90;;;;;;4959126;28;20502;-71
2024/03/16 03:12:33;;;;;;;2.60;1.83;;;11.80;99.90;;;;;;4955803;28;21369;-71
2024/03/16 03:14:59;;;;;;;4.17;1.93;;;11.70;99.90;;;;;;4951774;28;22815;-72
2024/03/16 03:17:27;;;;;;;8.87;2.57;;;11.80;99.90;;;;;;4938134;28;21162;-72
2024/03/16 03:19:53;;;;;;;2.47;1.93;;;11.80;99.90;;;;;;4956523;28;20479;-72
2024/03/16 03:22:20;;;;;;;2.20;2.07;;;11.80;99.90;;;;;;4935973;28;20432;-71
2024/03/16 03:24:47;;;;;;;3.03;1.50;;;11.80;99.90;;;;;;4956281;28;20469;-72
2024/03/16 03:27:16;;;;;;;2.17;1.70;;;11.70;99.90;;;;;;4948406;28;20441;-72
2024/03/16 03:29:43;;;;;;;2.03;1.40;;;11.60;99.90;;;;;;4936815;28;20823;-72
2024/03/16 03:32:10;;;;;;;4.97;1.63;;;11.60;99.90;;;;;;4936859;28;20541;-71
2024/03/16 03:34:37;;;;;;;4.00;2.10;;;11.70;99.90;;;;;;4950325;28;20752;-71
2024/03/16 03:37:04;;;;;;;3.17;1.17;;;11.70;99.90;;;;;;4947928;28;20658;-71
2024/03/16 03:39:31;;;;;;;4.10;1.87;;;11.70;99.90;;;;;;4944006;28;21048;-71
2024/03/16 03:41:58;;;;;;;2.20;1.30;;;11.80;99.90;;;;;;4932460;28;20470;-71
2024/03/16 03:44:35;;;;;;;3.63;2.00;;;11.80;99.90;;;;;;4952638;28;20496;-71
2024/03/16 03:47:07;;;;;;;3.50;2.20;;;11.70;99.90;;;;;;4968706;28;20543;-71
2024/03/16 03:49:35;;;;;;;6.97;2.00;;;11.60;99.90;;;;;;4964453;28;20482;-70
2024/03/16 03:52:03;;;;;;;2.97;2.20;;;11.70;99.90;;;;;;4938094;28;22777;-71
2024/03/16 03:54:31;;;;;;;4.97;2.23;;;11.80;99.90;;;;;;4953924;28;20466;-71
2024/03/16 03:56:57;;;;;;;6.90;2.50;;;11.80;99.90;;;;;;4946553;28;20462;-71
2024/03/16 03:59:24;;;;;;;2.80;1.67;;;11.70;99.90;;;;;;4941029;28;20478;-72
2024/03/16 04:01:52;;;;;;;4.70;2.20;;;11.60;99.90;;;;;;4944416;28;20461;-71
2024/03/16 04:04:19;;;;;;;7.30;2.73;;;11.50;99.90;;;;;;4944124;28;20466;-71
2024/03/16 04:06:46;;;;;;;3.10;1.60;;;11.50;99.90;;;;;;4959087;28;20472;-71
2024/03/16 04:09:13;;;;;;;2.73;2.27;;;11.50;99.90;;;;;;4936061;28;20605;-71
2024/03/16 04:11:40;;;;;;;2.87;2.10;;;11.40;99.90;;;;;;4952704;28;21242;-70
2024/03/16 04:14:07;;;;;;;2.30;1.83;;;11.20;99.90;;;;;;4938199;28;22939;-71
2024/03/16 04:16:34;;;;;;;2.93;2.50;;;11.30;99.90;;;;;;4941653;28;20467;-71
2024/03/16 04:19:01;;;;;;;5.77;3.27;;;11.30;99.90;;;;;;4945056;28;20466;-71
2024/03/16 04:21:28;;;;;;;7.23;3.63;;;11.30;99.90;;;;;;4962721;28;20489;-71
2024/03/16 04:23:55;;;;;;;3.10;2.00;;;11.30;99.90;;;;;;4943146;28;20477;-71
2024/03/16 04:26:25;;;;;;;6.53;3.40;;;11.30;99.90;;;;;;4947815;28;20458;-71
2024/03/16 04:28:52;;;;;;;5.73;3.47;;;11.30;99.90;;;;;;4951866;28;20514;-72
2024/03/16 04:31:19;;;;;;;4.23;2.90;;;11.30;99.90;;;;;;4955131;28;20474;-72
2024/03/16 04:33:45;;;;;;;3.60;2.63;;;11.30;99.90;;;;;;4956196;28;20474;-72
2024/03/16 04:36:13;;;;;;;3.90;2.90;;;11.40;99.90;;;;;;4942515;28;20827;-72
2024/03/16 04:38:40;;;;;;;5.83;2.80;;;11.40;99.90;;;;;;4945058;28;20449;-72
2024/03/16 04:41:07;;;;;;;7.67;3.40;;;11.40;99.90;;;;;;4946282;28;20482;-72
2024/03/16 04:43:34;;;;;;;7.30;4.13;;;11.40;99.90;;;;;;4942438;28;20981;-71
2024/03/16 04:46:01;;;;;;;9.33;3.13;;;11.40;99.90;;;;;;4941468;28;21019;-71
2024/03/16 04:48:28;;;;;;;5.60;3.17;;;11.50;99.90;;;;;;4950629;28;20604;-72
2024/03/16 04:50:58;;;;;;;10.33;3.93;;;11.50;99.90;;;;;;4970896;28;20487;-72
2024/03/16 04:53:26;;;;;;;9.50;3.77;;;11.40;99.90;;;;;;4952866;28;20465;-72
2024/03/16 04:55:53;;;;;;;6.57;4.37;;;11.40;99.90;;;;;;4956989;28;20525;-71
2024/03/16 04:58:20;;;;;;;5.60;2.90;;;11.40;99.90;;;;;;4974139;28;20466;-70
2024/03/16 05:00:47;;;;;;;5.43;3.37;;;11.40;99.90;;;;;;4960532;28;20449;-71
2024/03/16 05:03:14;;;;;;;5.20;3.20;;;11.40;99.90;;;;;;4953057;28;20448;-71
2024/03/16 05:05:40;;;;;;;6.60;3.47;;;11.40;99.90;;;;;;4960693;28;20455;-70
2024/03/16 05:08:08;;;;;;;6.03;4.40;;;11.40;99.90;;;;;;4951731;28;20987;-71
2024/03/16 05:10:35;;;;;;;9.57;4.17;;;11.50;99.90;;;;;;4956393;28;20496;-71
2024/03/16 05:13:01;;;;;;;8.10;2.60;;;11.40;99.90;;;;;;4967660;28;20437;-71
2024/03/16 05:15:28;;;;;;;8.60;4.83;;;11.40;99.90;;;;;;4956725;28;20470;-72
2024/03/16 05:17:56;;;;;;;5.57;3.43;;;11.40;99.90;;;;;;4942841;28;20458;-71
2024/03/16 05:20:22;;;;;;;6.83;4.80;;;11.40;99.90;;;;;;4943627;28;20632;-71
2024/03/16 05:22:49;;;;;;;13.30;5.60;;;11.40;99.90;;;;;;4942007;28;20457;-71
2024/03/16 05:25:16;;;;;;;5.47;4.27;;;11.40;99.90;;;;;;4961391;28;20942;-72
2024/03/16 05:27:43;;;;;;;7.50;5.47;;;11.40;99.90;;;;;;4960291;28;20969;-72
2024/03/16 05:30:11;;;;;;;9.00;4.60;;;11.30;99.90;;;;;;4946923;28;20486;-71
2024/03/16 05:32:38;;;;;;;11.50;5.50;;;11.30;99.90;;;;;;4947216;28;20470;-71
2024/03/16 05:35:07;;;;;;;10.53;5.80;;;11.30;99.90;;;;;;4951050;28;20675;-71
2024/03/16 05:37:34;;;;;;;7.33;5.10;;;11.30;99.90;;;;;;4938847;28;20549;-71
2024/03/16 05:40:02;;;;;;;13.33;7.03;;;11.40;99.90;;;;;;4951528;28;20525;-71
2024/03/16 05:42:29;;;;;;;9.27;5.30;;;11.40;99.90;;;;;;4945487;28;23031;-71
2024/03/16 05:44:57;;;;;;;6.13;4.50;;;11.40;99.90;;;;;;4935550;28;20467;-71
2024/03/16 05:47:23;;;;;;;13.97;5.57;;;11.40;99.90;;;;;;4942206;28;20469;-71
2024/03/16 05:49:49;;;;;;;6.17;5.17;;;11.40;99.90;;;;;;4942995;28;20810;-71
2024/03/16 05:52:16;;;;;;;13.33;5.63;;;11.40;99.90;;;;;;4950309;28;20837;-71
2024/03/16 05:54:43;;;;;;;8.83;6.37;;;11.30;99.90;;;;;;4951096;28;20458;-71
2024/03/16 05:57:10;;;;;;;13.23;5.43;;;11.30;99.90;;;;;;4943642;28;20463;-71
2024/03/16 05:59:37;;;;;;;8.80;6.13;;;11.20;99.90;;;;;;4940335;28;21027;-71
2024/03/16 06:02:04;;;;;;;7.37;3.40;;;11.00;99.90;;;;;;4941971;28;20455;-71
2024/03/16 06:04:31;;;;;;;6.03;3.30;;;10.90;99.90;;;;;;4953921;28;20969;-72
2024/03/16 06:06:58;;;;;;;3.83;2.67;;;10.80;99.90;;;;;;4942659;28;20471;-71
2024/03/16 06:09:25;;;;;;;5.80;4.20;;;10.70;99.90;;;;;;4966358;28;20509;-72
2024/03/16 06:11:51;;;;;;;6.43;3.97;;;10.70;99.90;;;;;;4957072;28;20457;-72
2024/03/16 06:14:18;;;;;;;4.97;2.90;;;10.70;99.90;;;;;;4959861;28;20485;-72
2024/03/16 06:16:45;;;;;;;5.53;3.00;;;10.70;99.90;;;;;;4959139;28;20440;-72
2024/03/16 06:19:14;;;;;;;3.20;2.20;;;10.70;99.90;;;;;;4945901;28;20486;-72
2024/03/16 06:21:45;;;;;;;6.87;2.70;;;10.60;99.90;;;;;;4950388;28;20424;-72
2024/03/16 06:24:12;;;;;;;4.10;3.67;;;10.50;99.90;;;;;;4948594;28;20810;-72
2024/03/16 06:26:41;;;;;;;2.77;2.50;;;10.50;99.90;;;;;;4954651;28;20527;-71
2024/03/16 06:29:08;;;;;;;3.27;2.47;;;10.50;99.90;;;;;;4948126;28;20486;-71
2024/03/16 06:31:37;;;;;;;2.23;2.07;;;10.40;99.90;;;;;;4948942;28;21204;-71
2024/03/16 06:34:05;;;;;;;5.33;2.80;;;10.20;99.90;;;;;;4952049;28;20442;-71
2024/03/16 06:36:32;;;;;;;5.03;3.60;;;10.20;99.90;;;;;;4967797;28;20907;-72
2024/03/16 06:39:00;;;;;;;3.40;2.80;;;10.10;99.90;;;;;;4947736;28;22821;-72
2024/03/16 06:41:30;;;;;;;6.77;3.63;;;10.20;99.90;;;;;;4963534;28;20463;-72
2024/03/16 06:43:57;;;;;;;5.87;2.90;;;10.20;99.90;;;;;;4948460;28;20432;-72
2024/03/16 06:46:24;;;;;;;3.60;2.80;;;10.30;99.90;;;;;;4959601;28;20459;-70
2024/03/16 06:51:27;;;;;;;2.93;2.37;;;10.30;99.90;;;;;;5043290;28;20581;-68
2024/03/16 06:53:54;;;;;;;3.10;2.03;;;10.30;99.90;;;;;;5015241;28;22000;-68
2024/03/16 06:56:21;;;;;;;3.03;2.27;;;10.20;99.90;;;;;;5015527;28;20616;-68
2024/03/16 06:58:47;;;;;;;1.60;1.07;;;10.00;99.90;;;;;;5027865;28;20511;-68
2024/03/16 07:01:14;;;;;;;2.57;1.30;;;10.00;99.90;;;;;;5018803;28;21119;-69
2024/03/16 07:03:41;;;;;;;2.13;1.93;;;9.90;99.90;;;;;;5018018;28;20472;-68
2024/03/16 07:06:09;;;;;;;2.30;1.60;;;9.80;99.90;;;;;;5011395;28;20557;-68
2024/03/16 07:08:38;;;;;;;3.80;1.77;;;9.80;99.90;;;;;;5015095;28;20444;-69
2024/03/16 07:11:05;;;;;;;3.27;2.50;;;9.80;99.90;;;;;;5021843;28;20480;-69
2024/03/16 07:13:31;;;;;;;2.50;1.70;;;9.90;99.90;;;;;;5012998;28;20522;-67
2024/03/16 07:15:58;;;;;;;1.50;1.40;;;9.90;99.90;;;;;;5013728;28;20507;-68
2024/03/16 07:18:25;;;;;;;2.23;1.60;;;9.90;99.90;;;;;;5018404;28;20492;-68
2024/03/16 07:20:52;;;;;;;2.53;1.60;;;10.00;99.90;;;;;;5003327;28;20503;-69
2024/03/16 07:23:19;;;;;;;3.37;2.23;;;9.90;99.90;;;;;;5006178;28;20485;-69
2024/03/16 07:25:50;;;;;;;2.50;1.90;;;10.00;99.90;;;;;;4998647;28;20478;-68
2024/03/16 07:28:17;;;;;;;1.60;1.00;;;10.10;99.90;;;;;;5004285;28;22050;-69
2024/03/16 07:30:44;;;;;;;1.40;1.10;;;10.00;99.90;;;;;;4989541;28;20457;-69
2024/03/16 07:33:13;;;;;;;2.97;1.80;;;10.00;99.90;;;;;;4995520;28;20601;-69
2024/03/16 07:35:41;;;;;;;1.70;1.40;;;10.00;99.90;;;;;;5002025;28;21060;-68
2024/03/16 07:38:08;;;;;;;7.10;3.20;;;10.20;99.90;;;;;;4992309;28;20462;-68
2024/03/16 07:40:35;;;;;;;1.70;1.60;;;10.20;99.90;;;;;;5006821;28;20524;-68
2024/03/16 07:43:02;;;;;;;1.70;1.40;;;10.10;99.90;;;;;;5007279;28;20458;-69
2024/03/16 07:45:29;;;;;;;1.40;1.07;;;10.20;99.90;;;;;;4987349;28;21106;-68
2024/03/16 07:47:56;;;;;;;2.27;1.40;;;10.10;99.90;;;;;;4992964;28;20458;-68
2024/03/16 07:50:23;;;;;;;2.07;1.90;;;10.20;99.90;;;;;;4984167;28;20918;-70
2024/03/16 07:52:50;;;;;;;3.63;1.33;;;10.30;99.90;;;;;;5009174;28;20987;-67
2024/03/16 07:55:17;;;;;;;1.63;1.07;;;10.50;99.90;;;;;;4993800;28;20458;-69
2024/03/16 07:57:44;;;;;;;1.40;1.10;;;10.50;99.90;;;;;;4994383;28;20445;-69
2024/03/16 08:00:11;;;;;;;1.50;1.40;;;10.70;99.90;;;;;;4996618;28;20499;-68
2024/03/16 08:02:38;;;;;;;2.90;1.20;;;10.50;99.90;;;;;;4995335;28;20463;-68
2024/03/16 08:05:05;;;;;;;1.10;0.87;;;10.50;99.90;;;;;;4988658;28;20459;-70
2024/03/16 08:07:32;;;;;;;1.53;1.20;;;10.50;99.90;;;;;;4992378;28;20551;-69
2024/03/16 08:10:01;;;;;;;2.90;2.00;;;10.40;99.90;;;;;;5005381;28;20539;-69
2024/03/16 08:12:29;;;;;;;2.60;1.30;;;10.40;99.90;;;;;;4991128;28;21511;-70
2024/03/16 08:14:55;;;;;;;3.83;2.10;;;10.50;99.90;;;;;;4991092;28;20463;-68
2024/03/16 08:17:22;;;;;;;1.63;1.00;;;10.60;99.90;;;;;;4978761;28;20877;-70
2024/03/16 08:19:49;;;;;;;1.80;1.20;;;10.80;99.90;;;;;;4982022;28;22078;-69
2024/03/16 08:22:16;;;;;;;3.00;1.77;;;10.90;99.90;;;;;;5000602;28;20458;-68
2024/03/16 08:24:43;;;;;;;4.07;2.70;;;10.80;99.90;;;;;;4993964;28;21239;-69
2024/03/16 08:27:13;;;;;;;2.47;1.60;;;10.80;99.90;;;;;;4987532;28;21086;-69
2024/03/16 08:29:40;;;;;;;2.23;2.03;;;10.70;99.90;;;;;;4997495;28;20489;-67
2024/03/16 08:32:09;;;;;;;2.13;1.60;;;10.70;99.90;;;;;;4987741;28;20465;-68
2024/03/16 08:34:36;;;;;;;1.67;1.47;;;10.70;99.90;;;;;;5000229;28;20779;-68
2024/03/16 08:37:03;;;;;;;2.23;1.67;;;10.60;99.90;;;;;;5013798;28;20451;-68
2024/03/16 08:39:31;;;;;;;1.63;1.50;;;10.50;99.90;;;;;;5003557;28;20482;-68
2024/03/16 08:41:58;;;;;;;1.00;0.80;;;10.30;99.90;;;;;;5012032;28;20477;-68
2024/03/16 08:44:25;;;;;;;1.20;1.07;;;9.60;99.90;;;;;;4998098;28;20461;-68
2024/03/16 08:46:52;;;;;;;1.53;1.20;;;9.30;99.90;;;;;;5003510;28;20990;-69
2024/03/16 08:49:18;;;;;;;1.83;1.40;;;9.10;99.90;;;;;;5018593;28;20464;-69
2024/03/16 08:51:45;;;;;;;4.83;2.73;;;9.10;99.90;;;;;;5012164;28;20479;-69
2024/03/16 08:54:12;;;;;;;1.20;0.80;;;9.10;99.90;;;;;;5022861;28;20455;-69
2024/03/16 08:56:39;;;;;;;1.53;1.03;;;9.20;99.90;;;;;;5034763;28;20459;-69
2024/03/16 08:59:06;;;;;;;0.90;0.70;;;9.50;99.90;;;;;;5017156;28;20850;-69
2024/03/16 09:01:35;;;;;;;0.90;0.80;;;9.50;99.90;;;;;;5007283;28;20430;-69
2024/03/16 09:04:03;;;;;;;3.10;1.17;;;9.70;99.90;;;;;;5003927;28;20462;-69
2024/03/16 09:06:29;;;;;;;3.87;1.50;;;9.80;99.90;;;;;;5010531;28;20441;-68
2024/03/16 09:08:59;;;;;;;1.50;1.20;;;10.00;99.90;;;;;;5010168;28;20828;-68
2024/03/16 09:11:26;;;;;;;1.30;1.13;;;10.50;99.90;;;;;;5005093;28;20464;-68
2024/03/16 09:13:52;;;;;;;1.67;1.00;;;11.70;99.90;;;;;;4998083;28;20466;-68
2024/03/16 09:16:20;;;;;;;1.27;1.00;;;12.80;99.90;;;;;;4999806;28;21509;-69
2024/03/16 09:18:46;;;;;;;1.70;1.20;;;13.30;99.90;;;;;;4993195;28;20908;-69
2024/03/16 09:21:13;;;;;;;1.03;0.80;;;13.30;99.90;;;;;;4988403;28;20518;-68
2024/03/16 09:23:40;;;;;;;0.90;0.67;;;12.60;99.90;;;;;;4999474;28;20463;-69
2024/03/16 09:26:07;;;;;;;1.00;0.70;;;11.90;99.90;;;;;;5010134;28;20475;-69
2024/03/16 09:28:35;;;;;;;1.57;0.83;;;11.50;99.90;;;;;;5001655;28;20593;-68
2024/03/16 09:31:05;;;;;;;3.63;0.90;;;11.20;99.90;;;;;;5007843;28;21762;-69
2024/03/16 09:33:32;;;;;;;1.07;0.77;;;11.00;99.90;;;;;;4998056;28;21060;-69
2024/03/16 09:35:59;;;;;;;1.23;0.97;;;11.00;99.90;;;;;;5012304;28;21095;-69
2024/03/16 09:38:26;;;;;;;1.30;1.00;;;11.20;99.90;;;;;;4999910;28;20438;-68
2024/03/16 09:40:55;;;;;;;1.57;1.10;;;11.40;99.90;;;;;;5004008;28;20474;-68
2024/03/16 09:43:22;;;;;;;1.17;1.00;;;11.20;99.90;;;;;;5002371;28;20474;-69
2024/03/16 09:45:49;;;;;;;2.33;1.20;;;10.80;99.90;;;;;;4999343;28;20459;-68
2024/03/16 09:48:16;;;;;;;5.83;1.97;;;10.70;99.90;;;;;;4992351;28;20474;-69
2024/03/16 09:50:45;;;;;;;1.33;0.80;;;10.90;99.90;;;;;;4993929;28;20577;-69
2024/03/16 09:53:12;;;;;;;2.40;1.00;;;10.90;99.90;;;;;;5005299;28;20470;-69
2024/03/16 09:55:39;;;;;;;1.23;1.00;;;11.00;99.90;;;;;;5001434;28;20459;-68
2024/03/16 09:58:07;;;;;;;2.30;0.90;;;11.00;99.90;;;;;;5027798;28;20449;-69
2024/03/16 10:00:35;;;;;;;1.23;1.00;;;10.90;99.90;;;;;;5023009;28;20857;-69
2024/03/16 10:03:02;;;;;;;1.90;1.50;;;10.70;99.90;;;;;;5001587;28;20518;-69
2024/03/16 10:05:31;;;;;;;3.43;1.37;;;10.70;99.90;;;;;;5010904;28;20572;-69
2024/03/16 10:07:58;;;;;;;1.50;1.00;;;10.40;99.90;;;;;;5011570;28;20445;-69
2024/03/16 10:10:25;;;;;;;1.53;1.10;;;10.40;99.90;;;;;;5001581;28;21012;-69
2024/03/16 10:12:53;;;;;;;5.97;1.10;;;10.50;99.90;;;;;;4998560;28;20441;-69
2024/03/16 10:15:20;;;;;;;1.67;1.20;;;10.70;99.90;;;;;;5015494;28;20437;-69
2024/03/16 10:17:49;;;;;;;2.10;1.90;;;10.90;99.90;;;;;;4996705;28;20540;-69
2024/03/16 10:20:18;;;;;;;4.63;1.00;;;11.10;99.90;;;;;;5007360;28;20767;-68
2024/03/16 10:22:45;;;;;;;3.43;1.93;;;11.30;99.90;;;;;;5003431;28;20455;-68
2024/03/16 10:25:12;;;;;;;3.40;1.47;;;11.10;99.90;;;;;;5018226;28;20554;-68
2024/03/16 10:27:39;;;;;;;2.70;1.80;;;11.20;99.90;;;;;;5002620;28;20439;-68
2024/03/16 10:30:11;;;;;;;5.20;1.30;;;11.10;99.90;;;;;;5009205;28;20859;-68
2024/03/16 10:32:38;;;;;;;1.60;1.20;;;11.10;99.90;;;;;;5005825;28;20459;-68
2024/03/16 10:35:10;;;;;;;2.90;2.67;;;11.20;99.90;;;;;;5010569;28;21340;-68
2024/03/16 10:37:38;;;;;;;1.93;1.20;;;11.20;99.90;;;;;;5001142;28;20498;-68
2024/03/16 10:40:13;;;;;;;1.20;0.80;;;11.60;99.90;;;;;;5005693;28;20453;-68
2024/03/16 10:42:43;;;;;;;1.20;0.90;;;12.00;99.90;;;;;;5008396;28;21181;-68
2024/03/16 10:45:16;;;;;;;4.50;1.00;;;12.60;99.90;;;;;;5000773;28;20460;-69
2024/03/16 10:47:46;;;;;;;1.20;1.00;;;13.00;99.90;;;;;;5001316;28;20567;-69
2024/03/16 10:50:13;;;;;;;2.60;0.90;;;12.80;99.90;;;;;;5017976;28;20498;-70
2024/03/16 10:52:43;;;;;;;1.77;1.27;;;12.80;99.90;;;;;;5015090;28;20487;-69
2024/03/16 10:55:11;;;;;;;2.00;1.50;;;12.30;99.90;;;;;;5032591;28;20473;-69
2024/03/16 10:57:38;;;;;;;4.30;1.10;;;12.40;99.90;;;;;;5028305;28;20462;-69
2024/03/16 11:00:13;;;;;;;1.00;0.90;;;12.30;99.90;;;;;;5011520;28;20474;-69
2024/03/16 11:02:52;;;;;;;1.17;0.87;;;11.90;99.90;;;;;;5019721;28;20511;-69
2024/03/16 11:05:35;;;;;;;2.90;1.33;;;11.70;99.90;;;;;;5028827;28;20775;-69
2024/03/16 11:08:23;;;;;;;4.83;1.37;;;11.60;99.90;;;;;;5033387;28;20466;-69
2024/03/16 11:10:50;;;;;;;4.70;2.60;;;11.40;99.90;;;;;;5011974;28;20457;-69
2024/03/16 11:13:17;;;;;;;1.23;0.90;;;11.40;99.90;;;;;;5019846;28;21038;-69
2024/03/16 11:15:44;;;;;;;4.40;1.67;;;11.20;99.90;;;;;;5001554;28;20458;-69
2024/03/16 11:18:43;;;;;;;1.83;1.00;;;11.20;99.90;;;;;;4999275;28;20467;-69
2024/03/16 11:21:16;;;;;;;1.73;1.30;;;11.20;99.90;;;;;;5024864;28;20437;-69
2024/03/16 11:23:44;;;;;;;2.20;1.10;;;11.30;99.90;;;;;;4991482;28;20460;-69
2024/03/16 11:26:31;;;;;;;5.03;1.10;;;11.20;99.90;;;;;;4994637;28;20441;-69
2024/03/16 11:29:14;;;;;;;1.67;1.07;;;11.10;99.90;;;;;;5007808;28;21070;-69
2024/03/16 11:31:40;;;;;;;1.80;0.90;;;11.10;99.90;;;;;;4994537;28;20595;-70
2024/03/16 11:34:11;;;;;;;3.17;1.53;;;11.00;99.90;;;;;;5003305;28;20810;-68
2024/03/16 11:36:41;;;;;;;1.20;0.90;;;10.90;99.90;;;;;;5008188;28;20886;-69
2024/03/16 11:39:24;;;;;;;2.00;0.93;;;10.80;99.90;;;;;;5002230;28;20441;-69
2024/03/16 11:41:50;;;;;;;1.63;1.53;;;10.80;99.90;;;;;;5002086;28;20455;-68
2024/03/16 11:44:17;;;;;;;1.50;1.30;;;10.80;99.90;;;;;;5003572;28;20473;-69
2024/03/16 11:46:44;;;;;;;3.97;1.50;;;10.60;99.90;;;;;;4996890;28;20534;-69
2024/03/16 11:49:18;;;;;;;5.57;1.10;;;10.70;99.90;;;;;;4990800;28;20482;-70
2024/03/16 11:51:44;;;;;;;1.40;1.10;;;10.80;99.90;;;;;;4940979;28;20711;-69
2024/03/16 11:54:14;;;;;;;2.37;1.20;;;10.80;99.90;;;;;;5011235;28;20455;-69
2024/03/16 11:56:40;;;;;;;2.10;1.47;;;10.90;99.90;;;;;;5013270;28;20466;-69
2024/03/16 11:59:08;;;;;;;1.00;0.80;;;11.20;99.90;;;;;;5003225;28;20522;-71
2024/03/16 12:01:34;;;;;;;1.17;0.87;;;11.30;99.90;;;;;;4995656;28;20806;-70
2024/03/16 12:04:03;;;;;;;1.47;1.10;;;11.50;99.90;;;;;;5006545;28;21060;-70
2024/03/16 12:06:29;;;;;;;1.93;0.90;;;11.70;99.90;;;;;;4999248;28;20429;-70
2024/03/16 12:08:56;;;;;;;2.40;2.20;;;12.00;99.90;;;;;;4985340;28;20545;-70
2024/03/16 12:11:23;;;;;;;2.33;1.50;;;12.20;99.90;;;;;;4998273;28;20479;-70
2024/03/16 12:13:51;;;;;;;7.50;1.27;;;12.10;99.90;;;;;;5003230;28;20450;-71
2024/03/16 12:16:17;;;;;;;1.17;1.07;;;12.50;99.90;;;;;;4989673;28;20842;-69
2024/03/16 12:18:44;;;;;;;2.63;1.10;;;12.40;99.90;;;;;;4988544;28;20546;-69
2024/03/16 12:21:12;;;;;;;2.80;2.40;;;12.20;99.90;;;;;;4983978;28;20467;-69
2024/03/16 12:23:39;;;;;;;1.80;1.43;;;12.10;99.90;;;;;;4991127;28;20459;-69
2024/03/16 12:26:09;;;;;;;1.63;1.53;;;11.90;99.90;;;;;;5005343;28;20434;-69
2024/03/16 12:28:36;;;;;;;2.50;1.40;;;11.50;99.90;;;;;;4984353;28;20642;-69
2024/03/16 12:31:02;;;;;;;2.53;1.83;;;11.30;99.90;;;;;;5005779;28;20850;-70
2024/03/16 12:33:29;;;;;;;3.40;2.03;;;11.60;99.90;;;;;;4993772;28;20487;-69
2024/03/16 12:35:55;;;;;;;1.57;1.20;;;11.70;99.90;;;;;;5019365;28;20461;-69
2024/03/16 12:38:22;;;;;;;8.93;1.40;;;11.60;99.90;;;;;;4994676;28;20462;-70
2024/03/16 12:40:48;;;;;;;2.73;1.30;;;11.60;99.90;;;;;;4999960;28;20506;-69
2024/03/16 12:43:16;;;;;;;2.33;1.00;;;11.50;99.90;;;;;;5010759;28;20456;-71
2024/03/16 12:45:42;;;;;;;2.07;1.20;;;11.60;99.90;;;;;;5003821;28;20463;-70
2024/03/16 12:48:09;;;;;;;1.30;0.90;;;11.70;99.90;;;;;;5008186;28;20452;-69
2024/03/16 12:50:34;;;;;;;5.70;1.10;;;11.80;99.90;;;;;;5011334;28;20832;-69
2024/03/16 12:53:01;;;;;;;1.60;1.30;;;11.80;99.90;;;;;;4966783;23;20486;-73